PWSweather.com
Personal Weather Stations
Station Observations
W8ITC
Casco, MI 48064

Casco, MI 48064

Lat: 42.7666512, Lon: -82.6875098

Elevation: 629

Station Type: Lacrosse 2310

http://www.w8itc.com/weather/

Latest ConditionsUpdated 8:40:05 PM EDT Saturday, Oct 20, 2018
Currently Today's Max Today's Min Today's Average
Temperature 37.2°F2.9°C 55.5°F13.1°C 36.5°F2.5°C 44.8°F7.1°C
Dew Point 34.3°F1.3°C 49.9°F9.9°C 33.1°F0.6°C 41.1°F5.1°C
Winds Calm Calm 14.0 mph -22.5 kmh - - 1.7 mph 2.7 kmh
Wind Gusts -- 14.0 mph22.5 kmh - -
Humidity 89% 95% 68% 87%
Pressure 30.16 in1021.3 mb 30.16 in1021.3 mb 29.87 in1011.5 mb -
Hour Temp Dew Point Humidity Winds Wind Gusts Pressure Precip Precip Rate Daily Precip Total
08:40 PM 37.2°F2.9°C 34.3°F1.3°C 89% Calm Calm -- 30.16 in1021.3 mb 0.00 in0.0 mm 0.00 in0.0 mm 0.14 in3.6 mm
08:30 PM 36.6°F2.6°C 33.4°F0.8°C 88% Calm Calm -- 30.15 in1021.0 mb 0.00 in0.0 mm 0.00 in0.0 mm 0.14 in3.6 mm
08:20 PM 36.5°F2.5°C 33.3°F0.7°C 88% Calm Calm -- 30.14 in1020.7 mb 0.00 in0.0 mm 0.00 in0.0 mm 0.14 in3.6 mm
08:10 PM 36.6°F2.6°C 33.4°F0.8°C 88% Calm Calm -- 30.13 in1020.3 mb 0.00 in0.0 mm 0.00 in0.0 mm 0.14 in3.6 mm
08:00 PM 36.6°F2.6°C 33.4°F0.8°C 88% Calm Calm -- 30.12 in1020.0 mb 0.00 in0.0 mm 0.00 in0.0 mm 0.14 in3.6 mm
07:50 PM 36.6°F2.6°C 33.1°F0.6°C 87% Calm Calm -- 30.11 in1019.6 mb 0.00 in0.0 mm 0.00 in0.0 mm 0.14 in3.6 mm
07:40 PM 36.8°F2.7°C 33.3°F0.7°C 87% 2.9 mph NNE4.7 kmh NNE 2.9 mph4.7 kmh 30.10 in1019.3 mb 0.00 in0.0 mm 0.00 in0.0 mm 0.14 in3.6 mm
07:30 PM 36.8°F2.7°C 33.6°F0.9°C 88% 1.7 mph NNE2.7 kmh NNE 1.7 mph2.7 kmh 30.09 in1019.0 mb 0.00 in0.0 mm 0.00 in0.0 mm 0.14 in3.6 mm
07:20 PM 36.8°F2.7°C 33.9°F1.1°C 89% 9.6 mph NNE15.4 kmh NNE 9.6 mph15.4 kmh 30.07 in1018.3 mb 0.00 in0.0 mm 0.00 in0.0 mm 0.14 in3.6 mm
07:10 PM 37.0°F2.8°C 34.1°F1.2°C 89% 6.7 mph NNE10.8 kmh NNE 6.7 mph10.8 kmh 30.06 in1017.9 mb 0.00 in0.0 mm 0.00 in0.0 mm 0.14 in3.6 mm
07:00 PM 37.2°F2.9°C 34.3°F1.3°C 89% 5.3 mph NE8.5 kmh NE 5.3 mph8.5 kmh 30.06 in1017.9 mb 0.00 in0.0 mm 0.00 in0.0 mm 0.14 in3.6 mm
06:50 PM 37.5°F3.1°C 34.8°F1.6°C 90% 7.1 mph NNE11.4 kmh NNE 7.1 mph11.4 kmh 30.05 in1017.6 mb 0.00 in0.0 mm 0.00 in0.0 mm 0.14 in3.6 mm
06:40 PM 37.7°F3.2°C 34.8°F1.6°C 89% 8.5 mph NNE13.7 kmh NNE 8.5 mph13.7 kmh 30.03 in1016.9 mb 0.00 in0.0 mm 0.00 in0.0 mm 0.14 in3.6 mm
06:30 PM 37.9°F3.3°C 35.0°F1.7°C 89% 5.5 mph NNE8.9 kmh NNE 5.5 mph8.9 kmh 30.03 in1016.9 mb 0.00 in0.0 mm 0.00 in0.0 mm 0.14 in3.6 mm
06:20 PM 38.4°F3.6°C 35.2°F1.8°C 88% Calm Calm -- 30.01 in1016.3 mb 0.00 in0.0 mm 0.00 in0.0 mm 0.14 in3.6 mm
06:10 PM 38.8°F3.8°C 35.3°F1.8°C 87% 14.0 mph NNE22.5 kmh NNE 14.0 mph22.5 kmh 30.01 in1016.3 mb 0.00 in0.0 mm 0.00 in0.0 mm 0.14 in3.6 mm
06:00 PM 39.3°F4.1°C 35.8°F2.1°C 87% 12.0 mph NNE19.3 kmh NNE 12.0 mph19.3 kmh 29.99 in1015.6 mb 0.00 in0.0 mm 0.00 in0.0 mm 0.14 in3.6 mm
05:50 PM 40.2°F4.6°C 36.1°F2.3°C 85% 3.1 mph ENE5.0 kmh ENE 3.1 mph5.0 kmh 29.98 in1015.2 mb 0.00 in0.0 mm 0.00 in0.0 mm 0.14 in3.6 mm
05:40 PM 41.5°F5.3°C 37.0°F2.8°C 84% 3.5 mph NNE5.6 kmh NNE 3.5 mph5.6 kmh 29.97 in1014.9 mb 0.00 in0.0 mm 0.00 in0.0 mm 0.14 in3.6 mm
05:30 PM 43.3°F6.3°C 38.8°F3.8°C 84% 6.0 mph NNE9.7 kmh NNE 6.0 mph9.7 kmh 29.96 in1014.6 mb 0.00 in0.0 mm 0.00 in0.0 mm 0.14 in3.6 mm
05:20 PM 44.7°F7.1°C 40.5°F4.7°C 85% Calm Calm -- 29.95 in1014.2 mb 0.00 in0.0 mm 0.00 in0.0 mm 0.14 in3.6 mm
05:10 PM 44.7°F7.1°C 41.1°F5.1°C 87% 0.8 mph 1.3 kmh 0.8 mph1.3 kmh 29.94 in1013.9 mb 0.00 in0.0 mm 0.00 in0.0 mm 0.14 in3.6 mm
05:00 PM 44.6°F7.0°C 41.3°F5.2°C 88% Calm Calm -- 29.93 in1013.5 mb 0.00 in0.0 mm 0.00 in0.0 mm 0.14 in3.6 mm
04:50 PM 44.0°F6.7°C 40.7°F4.8°C 88% Calm Calm -- 29.93 in1013.5 mb 0.00 in0.0 mm 0.00 in0.0 mm 0.14 in3.6 mm
04:40 PM 43.5°F6.4°C 40.2°F4.6°C 88% Calm Calm -- 29.93 in1013.5 mb 0.00 in0.0 mm 0.00 in0.0 mm 0.14 in3.6 mm
04:30 PM 43.5°F6.4°C 40.5°F4.7°C 89% 4.2 mph 6.8 kmh 4.2 mph6.8 kmh 29.92 in1013.2 mb 0.00 in0.0 mm 0.00 in0.0 mm 0.14 in3.6 mm
04:20 PM 42.9°F6.1°C 39.9°F4.4°C 89% Calm Calm -- 29.90 in1012.5 mb 0.02 in0.5 mm 0.00 in0.0 mm 0.14 in3.6 mm
04:10 PM 42.6°F5.9°C 39.6°F4.2°C 89% 3.3 mph 5.3 kmh 3.3 mph5.3 kmh 29.90 in1012.5 mb 0.04 in1.0 mm 0.00 in0.0 mm 0.14 in3.6 mm
04:00 PM 42.4°F5.8°C 39.4°F4.1°C 89% Calm Calm -- 29.90 in1012.5 mb 0.08 in2.0 mm 0.00 in0.0 mm 0.14 in3.6 mm
03:50 PM 41.5°F5.3°C 38.2°F3.4°C 88% Calm Calm -- 29.90 in1012.5 mb 0.08 in2.0 mm 0.00 in0.0 mm 0.14 in3.6 mm
03:40 PM 41.3°F5.2°C 38.0°F3.3°C 88% Calm Calm -- 29.91 in1012.9 mb 0.08 in2.0 mm 0.00 in0.0 mm 0.14 in3.6 mm
03:30 PM 41.0°F5.0°C 37.7°F3.2°C 88% 3.3 mph 5.3 kmh 3.3 mph5.3 kmh 29.91 in1012.9 mb 0.08 in2.0 mm 0.12 in3.0 mm 0.14 in3.6 mm
03:20 PM 40.8°F4.9°C 37.2°F2.9°C 87% Calm Calm -- 29.91 in1012.9 mb 0.06 in1.5 mm 0.24 in6.1 mm 0.12 in3.0 mm
03:10 PM 41.1°F5.1°C 36.9°F2.7°C 85% 4.0 mph E6.4 kmh E 4.0 mph6.4 kmh 29.92 in1013.2 mb 0.02 in0.5 mm 0.12 in3.0 mm 0.08 in2.0 mm
03:00 PM 42.4°F5.8°C 37.6°F3.1°C 83% Calm Calm -- 29.91 in1012.9 mb 0.00 in0.0 mm 0.00 in0.0 mm 0.06 in1.5 mm
02:50 PM 45.1°F7.3°C 38.7°F3.7°C 78% 4.2 mph WNW6.8 kmh WNW 4.2 mph6.8 kmh 29.91 in1012.9 mb 0.00 in0.0 mm 0.00 in0.0 mm 0.06 in1.5 mm
02:40 PM 48.3°F9.1°C 42.1°F5.6°C 79% Calm Calm -- 29.88 in1011.9 mb 0.00 in0.0 mm 0.00 in0.0 mm 0.06 in1.5 mm
02:30 PM 48.9°F9.4°C 44.0°F6.7°C 83% 5.5 mph NNE8.9 kmh NNE 5.5 mph8.9 kmh 29.87 in1011.5 mb 0.06 in1.5 mm 0.00 in0.0 mm 0.06 in1.5 mm
02:20 PM 48.7°F9.3°C 43.8°F6.6°C 83% Calm Calm -- 29.87 in1011.5 mb 0.06 in1.5 mm 0.00 in0.0 mm 0.06 in1.5 mm
02:10 PM 47.8°F8.8°C 42.6°F5.9°C 82% Calm Calm -- 29.87 in1011.5 mb 0.06 in1.5 mm 0.00 in0.0 mm 0.06 in1.5 mm
02:00 PM 46.2°F7.9°C 40.4°F4.7°C 80% Calm Calm -- 29.87 in1011.5 mb 0.06 in1.5 mm 0.00 in0.0 mm 0.06 in1.5 mm
01:50 PM 46.2°F7.9°C 39.4°F4.1°C 77% Calm Calm -- 29.87 in1011.5 mb 0.06 in1.5 mm 0.00 in0.0 mm 0.06 in1.5 mm
01:40 PM 47.3°F8.5°C 39.1°F3.9°C 73% Calm Calm -- 29.88 in1011.9 mb 0.06 in1.5 mm 0.36 in9.1 mm 0.06 in1.5 mm
01:30 PM 49.6°F9.8°C 39.9°F4.4°C 69% 6.4 mph NNE10.3 kmh NNE 6.4 mph10.3 kmh 29.89 in1012.2 mb 0.00 in0.0 mm 0.00 in0.0 mm 0.00 in0.0 mm
01:20 PM 53.7°F12.1°C 43.4°F6.3°C 68% 4.0 mph NNW6.4 kmh NNW 4.0 mph6.4 kmh 29.90 in1012.5 mb 0.00 in0.0 mm 0.00 in0.0 mm 0.00 in0.0 mm
01:10 PM 55.5°F13.1°C 45.5°F7.5°C 69% 5.8 mph WNW9.3 kmh WNW 5.8 mph9.3 kmh 29.89 in1012.2 mb 0.00 in0.0 mm 0.00 in0.0 mm 0.00 in0.0 mm
01:00 PM 55.2°F12.9°C 46.3°F7.9°C 72% Calm Calm -- 29.89 in1012.2 mb 0.00 in0.0 mm 0.00 in0.0 mm 0.00 in0.0 mm
12:50 PM 54.5°F12.5°C 46.4°F8.0°C 74% Calm Calm -- 29.90 in1012.5 mb 0.00 in0.0 mm 0.00 in0.0 mm 0.00 in0.0 mm
12:40 PM 55.5°F13.1°C 47.0°F8.3°C 73% Calm Calm -- 29.90 in1012.5 mb 0.00 in0.0 mm 0.00 in0.0 mm 0.00 in0.0 mm
12:30 PM 55.0°F12.8°C 48.6°F9.2°C 79% Calm Calm -- 29.90 in1012.5 mb 0.00 in0.0 mm 0.00 in0.0 mm 0.00 in0.0 mm
12:20 PM 53.4°F11.9°C 48.4°F9.1°C 83% Calm Calm -- 29.91 in1012.9 mb 0.00 in0.0 mm 0.00 in0.0 mm 0.00 in0.0 mm
12:10 PM 53.7°F12.1°C 49.9°F9.9°C 87% 2.0 mph WNW3.2 kmh WNW 2.0 mph3.2 kmh 29.92 in1013.2 mb 0.00 in0.0 mm 0.00 in0.0 mm 0.00 in0.0 mm
12:00 PM 52.8°F11.6°C 49.7°F9.8°C 89% Calm Calm -- 29.93 in1013.5 mb 0.00 in0.0 mm 0.00 in0.0 mm 0.00 in0.0 mm
11:50 AM 51.6°F10.9°C 49.1°F9.5°C 91% Calm Calm -- 29.93 in1013.5 mb 0.00 in0.0 mm 0.00 in0.0 mm 0.00 in0.0 mm
11:40 AM 51.2°F10.7°C 49.0°F9.4°C 92% Calm Calm -- 29.93 in1013.5 mb 0.00 in0.0 mm 0.00 in0.0 mm 0.00 in0.0 mm
11:30 AM 50.7°F10.4°C 48.8°F9.3°C 93% Calm Calm -- 29.94 in1013.9 mb 0.00 in0.0 mm 0.00 in0.0 mm 0.00 in0.0 mm
11:20 AM 50.3°F10.2°C 48.6°F9.2°C 94% Calm Calm -- 29.94 in1013.9 mb 0.00 in0.0 mm 0.00 in0.0 mm 0.00 in0.0 mm
11:10 AM 49.8°F9.9°C 48.2°F9.0°C 94% Calm Calm -- 29.95 in1014.2 mb 0.00 in0.0 mm 0.00 in0.0 mm 0.00 in0.0 mm
11:00 AM 49.6°F9.8°C 48.0°F8.9°C 94% Calm Calm -- 29.95 in1014.2 mb 0.00 in0.0 mm 0.00 in0.0 mm 0.00 in0.0 mm
10:50 AM 49.2°F9.6°C 47.6°F8.7°C 94% Calm Calm -- 29.95 in1014.2 mb 0.00 in0.0 mm 0.00 in0.0 mm 0.00 in0.0 mm
10:40 AM 49.1°F9.5°C 47.7°F8.7°C 95% Calm Calm -- 29.95 in1014.2 mb 0.00 in0.0 mm 0.00 in0.0 mm 0.00 in0.0 mm
10:30 AM 48.7°F9.3°C 47.3°F8.5°C 95% Calm Calm -- 29.96 in1014.6 mb 0.00 in0.0 mm 0.00 in0.0 mm 0.00 in0.0 mm
10:20 AM 48.7°F9.3°C 47.3°F8.5°C 95% Calm Calm -- 29.96 in1014.6 mb 0.00 in0.0 mm 0.00 in0.0 mm 0.00 in0.0 mm
10:10 AM 48.0°F8.9°C 46.6°F8.1°C 95% Calm Calm -- 29.96 in1014.6 mb 0.00 in0.0 mm 0.00 in0.0 mm 0.00 in0.0 mm
10:00 AM 47.4°F8.6°C 46.0°F7.8°C 95% Calm Calm -- 29.96 in1014.6 mb 0.00 in0.0 mm 0.00 in0.0 mm 0.00 in0.0 mm
09:50 AM 46.9°F8.3°C 45.6°F7.6°C 95% Calm Calm -- 29.96 in1014.6 mb 0.00 in0.0 mm 0.00 in0.0 mm 0.00 in0.0 mm
09:40 AM 46.2°F7.9°C 44.9°F7.2°C 95% Calm Calm -- 29.96 in1014.6 mb 0.00 in0.0 mm 0.00 in0.0 mm 0.00 in0.0 mm
09:30 AM 45.8°F7.7°C 44.5°F6.9°C 95% Calm Calm -- 29.97 in1014.9 mb 0.00 in0.0 mm 0.00 in0.0 mm 0.00 in0.0 mm
09:20 AM 45.5°F7.5°C 43.9°F6.6°C 94% Calm Calm -- 29.98 in1015.2 mb 0.00 in0.0 mm 0.00 in0.0 mm 0.00 in0.0 mm
09:10 AM 44.9°F7.2°C 43.3°F6.3°C 94% Calm Calm -- 29.97 in1014.9 mb 0.00 in0.0 mm 0.00 in0.0 mm 0.00 in0.0 mm
09:00 AM 44.4°F6.9°C 42.8°F6.0°C 94% Calm Calm -- 29.97 in1014.9 mb 0.00 in0.0 mm 0.00 in0.0 mm 0.00 in0.0 mm
08:50 AM 43.3°F6.3°C 41.7°F5.4°C 94% Calm Calm -- 29.97 in1014.9 mb 0.00 in0.0 mm 0.00 in0.0 mm 0.00 in0.0 mm
08:40 AM 42.6°F5.9°C 41.0°F5.0°C 94% Calm Calm -- 29.98 in1015.2 mb 0.00 in0.0 mm 0.00 in0.0 mm 0.00 in0.0 mm
08:30 AM 42.4°F5.8°C 40.8°F4.9°C 94% Calm Calm -- 29.97 in1014.9 mb 0.00 in0.0 mm 0.00 in0.0 mm 0.00 in0.0 mm